createdAt,value
2023-04-06T00:00:10.429Z,8.43
2023-04-06T00:02:38.838Z,8.37
2023-04-06T00:05:07.504Z,8.77
2023-04-06T00:07:36.454Z,9.43
2023-04-06T00:10:05.492Z,8.33
2023-04-06T00:12:35.153Z,8.53
2023-04-06T00:15:03.981Z,8.07
2023-04-06T00:17:32.407Z,8.40
2023-04-06T00:20:00.833Z,8.40
2023-04-06T00:22:29.131Z,8.17
2023-04-06T00:24:57.399Z,8.50
2023-04-06T00:27:25.888Z,8.37
2023-04-06T00:29:55.571Z,8.60
2023-04-06T00:32:23.876Z,8.13
2023-04-06T00:34:52.216Z,8.07
2023-04-06T00:37:21.091Z,8.63
2023-04-06T00:39:49.346Z,7.90
2023-04-06T00:42:19.078Z,7.97
2023-04-06T00:44:47.337Z,8.20
2023-04-06T00:47:16.968Z,8.33
2023-04-06T00:49:45.307Z,7.90
2023-04-06T00:52:13.611Z,7.97
2023-04-06T00:54:41.879Z,7.83
2023-04-06T00:57:10.338Z,8.43
2023-04-06T00:59:38.696Z,8.33
2023-04-06T01:02:07.163Z,8.00
2023-04-06T01:04:36.958Z,8.03
2023-04-06T01:07:05.328Z,8.47
2023-04-06T01:09:33.596Z,8.47
2023-04-06T01:12:01.936Z,8.83
2023-04-06T01:14:30.429Z,8.20
2023-04-06T01:17:00.499Z,8.33
2023-04-06T01:19:28.899Z,8.13
2023-04-06T01:21:58.696Z,8.00
2023-04-06T01:24:28.348Z,7.70
2023-04-06T01:26:57.501Z,8.87
2023-04-06T01:29:25.808Z,8.13
2023-04-06T01:31:54.180Z,8.40
2023-04-06T01:34:22.523Z,7.80
2023-04-06T01:36:51.231Z,7.80
2023-04-06T01:39:19.516Z,7.80
2023-04-06T01:41:49.135Z,8.30
2023-04-06T01:44:18.940Z,8.10
2023-04-06T01:46:47.514Z,7.50
2023-04-06T01:49:15.978Z,8.30
2023-04-06T01:51:44.261Z,8.30
2023-04-06T01:54:12.532Z,7.60
2023-04-06T01:56:41.522Z,8.30
2023-04-06T01:59:11.407Z,8.10
2023-04-06T02:01:40.005Z,8.67
2023-04-06T02:04:08.313Z,9.13
2023-04-06T02:06:36.569Z,8.20
2023-04-06T02:09:04.897Z,8.83
2023-04-06T02:11:33.179Z,8.83
2023-04-06T02:14:01.888Z,8.53
2023-04-06T02:16:31.677Z,8.13
2023-04-06T02:19:00.086Z,8.67
2023-04-06T02:21:28.464Z,8.97
2023-04-06T02:23:56.845Z,8.77
2023-04-06T02:26:25.411Z,8.13
2023-04-06T02:28:53.657Z,9.27
2023-04-06T02:31:23.062Z,8.87
2023-04-06T02:33:52.806Z,8.90
2023-04-06T02:36:21.102Z,8.73
2023-04-06T02:38:49.401Z,9.20
2023-04-06T02:41:17.682Z,9.03
2023-04-06T02:43:45.964Z,8.17
2023-04-06T02:46:14.300Z,7.90
2023-04-06T02:48:42.617Z,8.63
2023-04-06T02:51:12.243Z,8.77
2023-04-06T02:53:40.503Z,9.70
2023-04-06T02:56:09.163Z,9.30
2023-04-06T02:58:37.856Z,9.30
2023-04-06T03:01:06.480Z,9.23
2023-04-06T03:03:34.780Z,9.07
2023-04-06T03:06:04.040Z,8.80
2023-04-06T03:08:33.712Z,8.80
2023-04-06T03:11:01.992Z,8.70
2023-04-06T03:13:30.411Z,9.00
2023-04-06T03:15:58.714Z,8.43
2023-04-06T03:18:27.000Z,8.20
2023-04-06T03:20:55.922Z,9.70
2023-04-06T03:23:24.267Z,8.70
2023-04-06T03:25:53.933Z,8.67
2023-04-06T03:28:22.311Z,8.37
2023-04-06T03:30:50.685Z,8.60
2023-04-06T03:33:18.994Z,8.87
2023-04-06T03:35:47.356Z,9.03
2023-04-06T03:38:16.950Z,9.80
2023-04-06T03:40:45.264Z,8.67
2023-04-06T03:43:15.069Z,9.27
2023-04-06T03:45:43.468Z,8.40
2023-04-06T03:48:11.772Z,9.07
2023-04-06T03:50:40.122Z,8.97
2023-04-06T03:53:09.725Z,8.57
2023-04-06T03:55:38.059Z,8.40
2023-04-06T03:58:06.341Z,9.03
2023-04-06T04:00:36.678Z,10.20
2023-04-06T04:03:05.204Z,10.17
2023-04-06T04:05:33.620Z,9.90
2023-04-06T04:08:02.025Z,10.13
2023-04-06T04:10:30.382Z,9.70
2023-04-06T04:12:58.674Z,10.57
2023-04-06T04:15:26.977Z,12.57
2023-04-06T04:17:56.738Z,9.77
2023-04-06T04:20:25.133Z,8.17
2023-04-06T04:22:53.513Z,8.63
2023-04-06T04:25:21.940Z,9.07
2023-04-06T04:27:51.050Z,9.30
2023-04-06T04:30:19.827Z,8.20
2023-04-06T04:32:48.225Z,9.03
2023-04-06T04:35:18.307Z,7.83
2023-04-06T04:37:46.672Z,8.10
2023-04-06T04:40:15.046Z,8.80
2023-04-06T04:42:43.370Z,8.27
2023-04-06T04:45:12.490Z,8.03
2023-04-06T04:47:40.840Z,8.50
2023-04-06T04:50:09.549Z,8.10
2023-04-06T04:52:40.469Z,8.17
2023-04-06T04:55:09.032Z,8.27
2023-04-06T04:57:37.436Z,8.30
2023-04-06T05:00:06.103Z,8.07
2023-04-06T05:02:34.434Z,8.83
2023-04-06T05:05:02.760Z,8.03
2023-04-06T05:07:31.438Z,8.43
2023-04-06T05:10:01.378Z,9.00
2023-04-06T05:12:29.724Z,9.77
2023-04-06T05:14:58.054Z,13.17
2023-04-06T05:17:26.756Z,16.60
2023-04-06T05:19:55.140Z,21.17
2023-04-06T05:22:23.478Z,17.27
2023-04-06T05:24:51.875Z,13.73
2023-04-06T05:27:21.538Z,9.83
2023-04-06T05:29:49.858Z,11.23
2023-04-06T05:32:18.160Z,16.33
2023-04-06T05:34:46.458Z,15.10
2023-04-06T05:37:14.717Z,14.40
2023-04-06T05:39:43.027Z,11.33
2023-04-06T05:42:12.235Z,10.13
2023-04-06T05:44:41.993Z,9.33
2023-04-06T05:47:10.498Z,8.63
2023-04-06T05:49:38.866Z,8.53
2023-04-06T05:52:07.176Z,9.33
2023-04-06T05:54:35.496Z,10.13
2023-04-06T05:57:04.867Z,11.10
2023-04-06T05:59:33.487Z,8.77
2023-04-06T06:02:03.226Z,7.70
2023-04-06T06:04:33.332Z,8.67
2023-04-06T06:07:01.605Z,7.23
2023-04-06T06:09:29.886Z,8.30
2023-04-06T06:11:58.258Z,8.90
2023-04-06T06:14:29.341Z,8.33
2023-04-06T06:16:57.680Z,8.10
2023-04-06T06:19:27.349Z,8.33
2023-04-06T06:21:55.687Z,8.60
2023-04-06T06:24:24.026Z,8.23
2023-04-06T06:26:52.334Z,8.13
2023-04-06T06:29:20.750Z,8.50
2023-04-06T06:31:49.106Z,8.20
2023-04-06T06:34:17.482Z,7.50
2023-04-06T06:36:48.732Z,8.30
2023-04-06T06:39:17.900Z,7.70
2023-04-06T06:41:46.297Z,8.20
2023-04-06T06:44:14.578Z,8.20
2023-04-06T06:46:43.235Z,8.03
2023-04-06T06:49:13.115Z,8.37
2023-04-06T06:51:41.461Z,8.10
2023-04-06T06:54:11.413Z,7.70
2023-04-06T06:56:40.239Z,8.50
2023-04-06T06:59:08.592Z,8.23
2023-04-06T07:01:37.029Z,8.57
2023-04-06T07:04:05.720Z,8.37
2023-04-06T07:06:34.173Z,8.73
2023-04-06T07:09:04.065Z,8.53
2023-04-06T07:11:33.887Z,9.37
2023-04-06T07:14:02.253Z,9.03
2023-04-06T07:16:31.067Z,8.70
2023-04-06T07:18:59.466Z,8.40
2023-04-06T07:21:27.784Z,9.17
2023-04-06T07:23:56.224Z,8.20
2023-04-06T07:26:24.678Z,8.53
2023-04-06T07:28:54.346Z,8.77
2023-04-06T07:31:23.304Z,9.43
2023-04-06T07:33:52.007Z,8.67
2023-04-06T07:36:20.465Z,8.60
2023-04-06T07:38:49.907Z,8.47
2023-04-06T07:41:18.227Z,8.27
2023-04-06T07:43:46.524Z,8.67
2023-04-06T07:46:16.405Z,8.20
2023-04-06T07:48:44.778Z,8.67
2023-04-06T07:51:15.296Z,8.60
2023-04-06T07:53:43.734Z,8.60
2023-04-06T07:56:13.225Z,9.17
2023-04-06T07:58:41.602Z,8.80
2023-04-06T08:01:09.946Z,8.93
2023-04-06T08:03:39.837Z,9.03
2023-04-06T08:06:08.473Z,8.53
2023-04-06T08:08:36.754Z,8.97
2023-04-06T08:11:05.057Z,9.33
2023-04-06T08:13:33.410Z,8.37
2023-04-06T08:16:02.110Z,8.73
2023-04-06T08:18:31.005Z,8.57
2023-04-06T08:21:00.685Z,8.47
2023-04-06T08:23:28.945Z,8.40
2023-04-06T08:25:57.308Z,8.33
2023-04-06T08:28:25.882Z,7.67
2023-04-06T08:30:54.293Z,8.60
2023-04-06T08:33:22.585Z,7.80
2023-04-06T08:35:50.897Z,7.77
2023-04-06T08:38:20.791Z,8.27
2023-04-06T08:40:50.782Z,8.60
2023-04-06T08:43:19.996Z,8.60
2023-04-06T08:45:48.478Z,7.30
2023-04-06T08:48:17.556Z,7.47
2023-04-06T08:50:46.089Z,8.27
2023-04-06T08:53:14.950Z,8.17
2023-04-06T08:55:45.731Z,8.37
2023-04-06T08:58:17.326Z,8.27
2023-04-06T09:00:54.046Z,8.17
2023-04-06T09:03:22.967Z,8.77
2023-04-06T09:05:51.518Z,8.27
2023-04-06T09:08:19.795Z,8.73
2023-04-06T09:10:50.710Z,8.20
2023-04-06T09:13:19.256Z,8.43
2023-04-06T09:15:47.597Z,8.07
2023-04-06T09:18:15.910Z,8.03
2023-04-06T09:20:44.205Z,8.07
2023-04-06T09:23:20.832Z,9.10
2023-04-06T09:25:50.625Z,8.80
2023-04-06T09:28:18.896Z,8.50
2023-04-06T09:30:51.213Z,8.60
2023-04-06T09:33:26.195Z,9.40
2023-04-06T09:35:54.487Z,9.40
2023-04-06T09:38:22.788Z,9.43
2023-04-06T09:41:01.069Z,9.10
2023-04-06T09:43:30.138Z,9.43
2023-04-06T09:45:59.679Z,9.73
2023-04-06T09:48:29.707Z,9.77
2023-04-06T09:51:01.958Z,10.27
2023-04-06T09:53:31.450Z,10.43
2023-04-06T09:56:05.445Z,10.93
2023-04-06T09:58:36.778Z,11.10
2023-04-06T10:01:07.235Z,10.83
2023-04-06T10:03:39.938Z,11.63
2023-04-06T10:06:10.705Z,13.20
2023-04-06T10:08:41.547Z,13.53
2023-04-06T10:11:11.579Z,11.97
2023-04-06T10:13:39.957Z,12.40
2023-04-06T10:16:08.999Z,12.43
2023-04-06T10:18:37.916Z,12.63
2023-04-06T10:21:09.094Z,13.30
2023-04-06T10:23:38.446Z,12.60
2023-04-06T10:26:06.768Z,12.77
2023-04-06T10:28:37.977Z,13.80
2023-04-06T10:31:08.542Z,14.00
2023-04-06T10:33:37.193Z,13.47
2023-04-06T10:36:14.971Z,12.63
2023-04-06T10:38:43.756Z,11.97
2023-04-06T10:41:12.623Z,12.97
2023-04-06T10:43:43.401Z,12.70
2023-04-06T10:46:12.656Z,12.03
2023-04-06T10:48:41.945Z,12.37
2023-04-06T10:51:11.260Z,12.53
2023-04-06T10:53:39.505Z,12.10
2023-04-06T10:56:12.465Z,12.90
2023-04-06T10:58:46.999Z,12.73
2023-04-06T11:01:16.853Z,12.23
2023-04-06T11:03:46.224Z,12.70
2023-04-06T11:06:20.685Z,11.97
2023-04-06T11:08:49.199Z,13.10
2023-04-06T11:11:19.386Z,13.60
2023-04-06T11:13:49.752Z,13.57
2023-04-06T11:16:18.871Z,13.70
2023-04-06T11:18:54.730Z,13.97
2023-04-06T11:21:23.606Z,13.40
2023-04-06T11:23:51.895Z,12.83
2023-04-06T11:26:20.250Z,12.50
2023-04-06T11:28:49.974Z,12.40
2023-04-06T11:31:18.417Z,13.30
2023-04-06T11:33:46.746Z,12.90
2023-04-06T11:36:16.685Z,14.27
2023-04-06T11:38:45.586Z,13.37
2023-04-06T11:41:13.881Z,13.43
2023-04-06T11:43:48.693Z,13.30
2023-04-06T11:46:21.447Z,13.83
2023-04-06T11:48:49.892Z,13.67
2023-04-06T11:51:24.734Z,13.03
2023-04-06T11:53:53.113Z,13.80
2023-04-06T11:56:28.356Z,14.13
2023-04-06T11:59:00.833Z,13.53
2023-04-06T12:01:34.151Z,12.27
2023-04-06T12:04:06.093Z,12.77
2023-04-06T12:06:34.483Z,13.97
2023-04-06T12:09:02.863Z,13.37
2023-04-06T12:11:31.162Z,13.67
2023-04-06T12:14:00.347Z,13.93
2023-04-06T12:16:28.720Z,14.43
2023-04-06T12:18:58.483Z,14.30
2023-04-06T12:21:26.801Z,13.87
2023-04-06T12:23:55.120Z,13.67
2023-04-06T12:26:23.538Z,13.87
2023-04-06T12:28:52.062Z,12.90
2023-04-06T12:31:21.136Z,13.53
2023-04-06T12:33:49.926Z,14.57
2023-04-06T12:36:21.042Z,13.77
2023-04-06T12:38:49.717Z,13.47
2023-04-06T12:41:18.165Z,13.37
2023-04-06T12:43:47.010Z,12.30
2023-04-06T12:46:15.838Z,13.10
2023-04-06T12:48:44.137Z,13.10
2023-04-06T12:51:12.425Z,13.90
2023-04-06T12:53:42.082Z,13.27
2023-04-06T12:56:14.562Z,12.73
2023-04-06T12:58:43.583Z,12.87
2023-04-06T13:01:13.780Z,13.63
2023-04-06T13:03:42.473Z,12.40
2023-04-06T13:06:10.912Z,12.50
2023-04-06T13:08:39.578Z,13.00
2023-04-06T13:11:10.216Z,12.23
2023-04-06T13:13:39.076Z,12.83
2023-04-06T13:16:08.397Z,12.97
2023-04-06T13:18:39.511Z,12.30
2023-04-06T13:21:08.413Z,12.03
2023-04-06T13:23:37.222Z,13.10
2023-04-06T13:26:06.914Z,12.33
2023-04-06T13:28:38.717Z,13.30
2023-04-06T13:31:07.481Z,11.70
2023-04-06T13:33:36.498Z,11.83
2023-04-06T13:36:05.443Z,11.67
2023-04-06T13:38:34.557Z,13.13
2023-04-06T13:41:02.867Z,12.00
2023-04-06T13:43:31.286Z,12.77
2023-04-06T13:46:02.361Z,12.73
2023-04-06T13:48:30.810Z,13.20
2023-04-06T13:50:59.115Z,13.47
2023-04-06T13:53:27.326Z,13.73
2023-04-06T13:55:56.335Z,14.77
2023-04-06T13:58:24.771Z,13.90
2023-04-06T14:00:53.713Z,14.20
2023-04-06T14:03:25.223Z,14.47
2023-04-06T14:05:53.577Z,14.07
2023-04-06T14:08:21.880Z,14.03
2023-04-06T14:10:50.186Z,14.13
2023-04-06T14:13:19.736Z,13.87
2023-04-06T14:15:48.011Z,14.37
2023-04-06T14:18:16.266Z,14.93
2023-04-06T14:20:45.864Z,14.53
2023-04-06T14:23:14.159Z,14.33
2023-04-06T14:25:43.123Z,13.77
2023-04-06T14:28:11.361Z,14.70
2023-04-06T14:30:39.625Z,14.60
2023-04-06T14:33:08.197Z,14.13
2023-04-06T14:35:36.500Z,14.83
2023-04-06T14:38:06.312Z,15.03
2023-04-06T14:40:37.218Z,14.07
2023-04-06T14:43:12.088Z,13.83
2023-04-06T14:45:40.315Z,13.60
2023-04-06T14:48:14.211Z,13.30
2023-04-06T14:50:54.169Z,13.60
2023-04-06T14:53:24.149Z,11.97
2023-04-06T14:55:53.184Z,12.40
2023-04-06T14:58:21.575Z,12.03
2023-04-06T15:00:50.350Z,11.60
2023-04-06T15:03:18.870Z,12.07
2023-04-06T15:05:47.237Z,11.80
2023-04-06T15:08:16.128Z,11.60
2023-04-06T15:10:45.687Z,11.53
2023-04-06T15:13:13.876Z,11.13
2023-04-06T15:15:43.216Z,11.13
2023-04-06T15:18:11.506Z,11.07
2023-04-06T15:20:40.000Z,12.03
2023-04-06T15:23:08.461Z,11.13
2023-04-06T15:25:36.771Z,10.90
2023-04-06T15:28:06.406Z,10.43
2023-04-06T15:30:34.665Z,11.00
2023-04-06T15:33:04.434Z,10.80
2023-04-06T15:35:32.848Z,11.97
2023-04-06T15:38:02.094Z,10.73
2023-04-06T15:40:30.417Z,11.03
2023-04-06T15:42:58.732Z,10.70
2023-04-06T15:45:28.263Z,11.47
2023-04-06T15:47:56.490Z,11.57
2023-04-06T15:50:24.861Z,9.17
2023-04-06T15:52:53.046Z,8.80
2023-04-06T15:55:21.361Z,8.63
2023-04-06T15:57:49.576Z,9.67
2023-04-06T16:00:18.326Z,8.67
2023-04-06T16:02:48.204Z,9.53
2023-04-06T16:05:16.567Z,10.03
2023-04-06T16:07:44.757Z,9.43
2023-04-06T16:10:13.000Z,10.20
2023-04-06T16:12:42.495Z,10.67
2023-04-06T16:15:11.161Z,10.23
2023-04-06T16:17:39.434Z,10.10
2023-04-06T16:20:10.690Z,10.20
2023-04-06T16:22:38.904Z,10.93
2023-04-06T16:25:07.440Z,10.07
2023-04-06T16:27:35.666Z,10.17
2023-04-06T16:30:04.020Z,10.13
2023-04-06T16:32:32.356Z,10.80
2023-04-06T16:35:00.741Z,10.50
2023-04-06T16:37:30.437Z,10.73
2023-04-06T16:39:59.330Z,11.67
2023-04-06T16:42:27.713Z,10.37
2023-04-06T16:44:56.162Z,9.97
2023-04-06T16:47:24.432Z,10.80
2023-04-06T16:49:52.633Z,9.90
2023-04-06T16:52:20.921Z,10.60
2023-04-06T16:54:50.866Z,11.17
2023-04-06T16:57:20.549Z,11.60
2023-04-06T16:59:48.802Z,10.90
2023-04-06T17:02:17.071Z,11.70
2023-04-06T17:04:45.412Z,10.77
2023-04-06T17:07:13.629Z,11.00
2023-04-06T17:09:42.305Z,10.60
2023-04-06T17:12:13.731Z,11.10
2023-04-06T17:14:41.976Z,10.63
2023-04-06T17:17:10.490Z,10.63
2023-04-06T17:19:38.822Z,11.17
2023-04-06T17:22:10.257Z,11.80
2023-04-06T17:24:38.599Z,11.53
2023-04-06T17:27:07.541Z,10.83
2023-04-06T17:29:41.043Z,11.57
2023-04-06T17:32:09.350Z,12.07
2023-04-06T17:34:38.110Z,12.50
2023-04-06T17:37:06.510Z,11.73
2023-04-06T17:39:34.974Z,11.73
2023-04-06T17:42:05.423Z,11.47
2023-04-06T17:44:34.165Z,13.80
2023-04-06T17:47:03.971Z,12.83
2023-04-06T17:49:32.609Z,11.27
2023-04-06T17:52:00.881Z,11.03
2023-04-06T17:54:29.251Z,11.03
2023-04-06T17:56:57.519Z,10.43
2023-04-06T17:59:26.085Z,10.63
2023-04-06T18:01:54.522Z,11.20
2023-04-06T18:04:24.272Z,11.47
2023-04-06T18:06:52.885Z,11.93
2023-04-06T18:09:21.202Z,10.93
2023-04-06T18:11:49.586Z,11.20
2023-04-06T18:14:17.818Z,11.70
2023-04-06T18:16:46.318Z,12.17
2023-04-06T18:19:15.294Z,12.30
2023-04-06T18:21:48.144Z,11.47
2023-04-06T18:24:27.339Z,12.60
2023-04-06T18:27:04.994Z,12.13
2023-04-06T18:29:34.174Z,12.03
2023-04-06T18:32:02.983Z,11.10
2023-04-06T18:34:31.604Z,15.00
2023-04-06T18:37:01.765Z,11.70
2023-04-06T18:39:30.454Z,11.03
2023-04-06T18:41:59.073Z,11.93
2023-04-06T18:44:27.401Z,11.57
2023-04-06T18:46:55.840Z,11.33
2023-04-06T18:49:24.252Z,11.40
2023-04-06T18:51:53.744Z,10.90
2023-04-06T18:54:23.361Z,11.97
2023-04-06T18:56:51.618Z,11.37
2023-04-06T18:59:19.869Z,11.17
2023-04-06T19:01:51.042Z,11.80
2023-04-06T19:04:19.694Z,13.47
2023-04-06T19:06:48.207Z,13.03
2023-04-06T19:09:16.506Z,14.33
2023-04-06T19:11:47.031Z,14.07
2023-04-06T19:14:15.262Z,15.00
2023-04-06T19:16:51.971Z,11.60
2023-04-06T19:19:21.525Z,14.13
2023-04-06T19:21:49.910Z,13.23
2023-04-06T19:24:18.360Z,12.90
2023-04-06T19:26:48.275Z,12.30
2023-04-06T19:29:16.569Z,12.03
2023-04-06T19:31:44.839Z,10.27
2023-04-06T19:34:17.633Z,10.77
2023-04-06T19:36:46.002Z,11.10
2023-04-06T19:39:17.122Z,10.10
2023-04-06T19:41:45.441Z,11.10
2023-04-06T19:44:15.126Z,11.17
2023-04-06T19:46:46.386Z,11.00
2023-04-06T19:49:14.887Z,10.87
2023-04-06T19:51:43.150Z,11.97
2023-04-06T19:54:11.426Z,12.10
2023-04-06T19:56:40.069Z,11.67
2023-04-06T19:59:10.917Z,10.63
2023-04-06T20:01:40.763Z,11.17
2023-04-06T20:04:09.395Z,11.60
2023-04-06T20:06:37.742Z,11.67
2023-04-06T20:09:06.146Z,12.17
2023-04-06T20:11:35.576Z,10.73
2023-04-06T20:14:03.886Z,10.77
2023-04-06T20:16:32.396Z,11.30
2023-04-06T20:19:02.078Z,10.70
2023-04-06T20:21:31.070Z,10.57
2023-04-06T20:23:59.327Z,10.87
2023-04-06T20:26:27.835Z,10.83
2023-04-06T20:28:56.091Z,11.07
2023-04-06T20:31:27.481Z,10.23
2023-04-06T20:33:55.928Z,10.70
2023-04-06T20:36:25.627Z,10.63
2023-04-06T20:38:53.982Z,10.70
2023-04-06T20:41:23.021Z,10.67
2023-04-06T20:43:51.324Z,11.10
2023-04-06T20:46:19.652Z,10.67
2023-04-06T20:48:48.012Z,11.27
2023-04-06T20:51:20.482Z,10.63
2023-04-06T20:53:50.340Z,11.17
2023-04-06T20:56:19.083Z,10.83
2023-04-06T20:58:47.394Z,11.47
2023-04-06T21:01:16.054Z,11.93
2023-04-06T21:03:44.599Z,11.70
2023-04-06T21:06:13.131Z,11.17
2023-04-06T21:08:41.537Z,12.33
2023-04-06T21:11:11.150Z,12.67
2023-04-06T21:13:39.489Z,12.03
2023-04-06T21:16:08.036Z,11.70
2023-04-06T21:18:36.375Z,12.37
2023-04-06T21:21:04.836Z,11.90
2023-04-06T21:23:33.382Z,12.43
2023-04-06T21:26:02.168Z,13.07
2023-04-06T21:28:31.872Z,12.40
2023-04-06T21:31:00.288Z,12.27
2023-04-06T21:33:28.625Z,13.33
2023-04-06T21:35:57.156Z,13.10
2023-04-06T21:38:25.446Z,13.10
2023-04-06T21:40:57.078Z,12.83
2023-04-06T21:43:25.418Z,13.90
2023-04-06T21:45:55.216Z,13.67
2023-04-06T21:48:23.493Z,13.83
2023-04-06T21:50:51.799Z,13.77
2023-04-06T21:53:20.054Z,14.47
2023-04-06T21:55:49.056Z,13.87
2023-04-06T21:58:17.392Z,14.00
2023-04-06T22:00:46.273Z,13.93
2023-04-06T22:03:16.016Z,14.87
2023-04-06T22:05:44.419Z,14.07
2023-04-06T22:08:17.803Z,13.93
2023-04-06T22:10:49.125Z,15.33
2023-04-06T22:13:17.475Z,14.73
2023-04-06T22:15:45.883Z,14.47
2023-04-06T22:18:15.486Z,14.10
2023-04-06T22:20:43.716Z,14.30
2023-04-06T22:23:12.051Z,15.97
2023-04-06T22:25:40.472Z,14.30
2023-04-06T22:28:08.700Z,14.67
2023-04-06T22:30:37.002Z,14.83
2023-04-06T22:33:05.745Z,15.30
2023-04-06T22:35:35.765Z,14.80
2023-04-06T22:38:04.013Z,14.50
2023-04-06T22:40:32.303Z,15.03
2023-04-06T22:43:00.610Z,14.83
2023-04-06T22:45:28.956Z,14.83
2023-04-06T22:47:57.239Z,13.93
2023-04-06T22:50:25.950Z,14.13
2023-04-06T22:52:56.118Z,15.50
2023-04-06T22:55:24.530Z,14.37
2023-04-06T22:57:52.783Z,14.37
2023-04-06T23:00:21.183Z,14.53
2023-04-06T23:02:50.436Z,13.70
2023-04-06T23:05:18.916Z,13.77
2023-04-06T23:07:47.230Z,13.60
2023-04-06T23:10:16.954Z,12.60
2023-04-06T23:12:45.292Z,12.50
2023-04-06T23:15:13.885Z,12.27
2023-04-06T23:17:42.215Z,12.53
2023-04-06T23:20:10.771Z,12.33
2023-04-06T23:22:39.537Z,11.93
2023-04-06T23:25:08.659Z,11.97
2023-04-06T23:27:38.259Z,11.87
2023-04-06T23:30:06.957Z,12.07
2023-04-06T23:32:35.957Z,12.37
2023-04-06T23:35:05.094Z,12.50
2023-04-06T23:37:33.358Z,12.47
2023-04-06T23:40:02.183Z,12.20
2023-04-06T23:42:30.513Z,13.33
2023-04-06T23:45:04.160Z,11.90
2023-04-06T23:47:32.389Z,12.87
2023-04-06T23:50:00.754Z,12.43
2023-04-06T23:52:29.947Z,12.63
2023-04-06T23:54:58.318Z,11.70
2023-04-06T23:57:27.231Z,11.33
2023-04-06T23:59:55.445Z,11.60
